createdAt,value
2022-08-20T00:02:27.488Z,1.10
2022-08-20T00:05:37.143Z,1.20
2022-08-20T00:08:39.837Z,1.00
2022-08-20T00:11:41.752Z,0.80
2022-08-20T00:14:43.747Z,0.80
2022-08-20T00:17:45.638Z,0.90
2022-08-20T00:20:50.204Z,0.83
2022-08-20T00:23:53.672Z,0.70
2022-08-20T00:26:55.618Z,0.90
2022-08-20T00:29:57.513Z,0.60
2022-08-20T00:33:06.011Z,0.77
2022-08-20T00:36:11.040Z,0.63
2022-08-20T00:39:13.332Z,0.63
2022-08-20T00:42:15.328Z,0.87
2022-08-20T00:45:19.856Z,0.80
2022-08-20T00:48:22.979Z,1.00
2022-08-20T00:51:32.244Z,0.90
2022-08-20T00:54:36.064Z,0.80
2022-08-20T00:58:01.475Z,0.90
2022-08-20T01:01:05.483Z,0.90
2022-08-20T01:04:08.088Z,0.80
2022-08-20T01:07:10.737Z,0.80
2022-08-20T01:10:19.477Z,0.60
2022-08-20T01:13:23.983Z,0.77
2022-08-20T01:16:29.603Z,0.77
2022-08-20T01:19:59.022Z,0.80
2022-08-20T01:23:27.533Z,1.00
2022-08-20T01:26:35.753Z,0.93
2022-08-20T01:29:40.451Z,0.70
2022-08-20T01:32:42.727Z,0.70
2022-08-20T01:35:44.862Z,0.87
2022-08-20T01:38:53.940Z,1.10
2022-08-20T01:42:04.734Z,1.47
2022-08-20T01:45:07.787Z,1.00
2022-08-20T01:48:09.817Z,0.90
2022-08-20T01:51:19.274Z,1.00
2022-08-20T01:54:22.457Z,1.00
2022-08-20T01:57:27.434Z,1.10
2022-08-20T02:00:29.548Z,1.03
2022-08-20T02:03:36.936Z,1.00
2022-08-20T02:06:56.692Z,1.23
2022-08-20T02:10:00.206Z,0.80
2022-08-20T02:13:02.604Z,1.03
2022-08-20T02:16:06.188Z,1.03
2022-08-20T02:19:15.153Z,1.03
2022-08-20T02:22:21.358Z,1.00
2022-08-20T02:25:27.528Z,1.10
2022-08-20T02:28:30.477Z,1.10
2022-08-20T02:31:35.022Z,1.20
2022-08-20T02:34:37.518Z,1.13
2022-08-20T02:37:44.908Z,1.27
2022-08-20T02:40:49.297Z,1.37
2022-08-20T02:43:51.678Z,1.23
2022-08-20T02:46:53.898Z,1.20
2022-08-20T02:49:55.932Z,1.60
2022-08-20T02:52:57.848Z,1.60
2022-08-20T02:56:00.808Z,1.50
2022-08-20T02:59:02.823Z,1.50
2022-08-20T03:02:04.812Z,1.23
2022-08-20T03:05:07.547Z,1.87
2022-08-20T03:08:11.119Z,1.70
2022-08-20T03:11:13.707Z,1.70
2022-08-20T03:14:15.673Z,1.50
2022-08-20T03:17:17.773Z,1.60
2022-08-20T03:20:22.419Z,1.60
2022-08-20T03:23:26.753Z,1.40
2022-08-20T03:26:28.627Z,1.27
2022-08-20T03:29:30.647Z,1.53
2022-08-20T03:32:32.787Z,1.60
2022-08-20T03:35:35.343Z,1.63
2022-08-20T03:38:37.380Z,1.60
2022-08-20T03:41:39.532Z,1.43
2022-08-20T03:44:41.782Z,1.77
2022-08-20T03:47:43.820Z,1.50
2022-08-20T03:50:47.483Z,1.57
2022-08-20T03:53:49.408Z,1.30
2022-08-20T03:56:51.298Z,1.70
2022-08-20T04:04:16.204Z,1.47
2022-08-20T04:07:25.902Z,1.67
2022-08-20T04:10:28.006Z,1.70
2022-08-20T04:13:31.283Z,1.50
2022-08-20T04:16:33.911Z,1.80
2022-08-20T04:19:37.227Z,1.50
2022-08-20T04:22:40.242Z,1.80
2022-08-20T04:25:43.590Z,1.60
2022-08-20T04:28:45.536Z,1.87
2022-08-20T04:31:47.621Z,1.87
2022-08-20T04:34:52.554Z,1.60
2022-08-20T04:38:05.182Z,1.70
2022-08-20T04:41:07.347Z,1.80
2022-08-20T04:44:23.128Z,2.03
2022-08-20T05:09:27.448Z,1.80
2022-08-20T05:20:41.720Z,1.93
2022-08-20T05:23:43.656Z,1.50
2022-08-20T05:26:45.544Z,1.60
2022-08-20T05:29:47.405Z,1.30
2022-08-20T05:32:50.349Z,1.73
2022-08-20T05:40:24.389Z,1.20
2022-08-20T05:43:26.255Z,1.60
2022-08-20T05:46:29.351Z,1.50
2022-08-20T06:02:56.963Z,1.50
2022-08-20T06:40:55.046Z,1.13
2022-08-20T06:43:56.880Z,1.00
2022-08-20T06:47:04.125Z,0.90
2022-08-20T06:50:09.661Z,0.80
2022-08-20T06:53:15.576Z,0.87
2022-08-20T06:56:17.496Z,1.20
2022-08-20T06:59:19.316Z,1.20
2022-08-20T07:02:21.224Z,1.57
2022-08-20T07:05:36.607Z,1.27
2022-08-20T07:08:38.592Z,1.37
2022-08-20T07:11:42.507Z,1.17
2022-08-20T07:14:44.851Z,1.73
2022-08-20T07:17:51.973Z,1.30
2022-08-20T07:20:55.168Z,1.60
2022-08-20T07:23:57.067Z,2.13
2022-08-20T07:26:59.372Z,1.70
2022-08-20T07:30:20.305Z,1.63
2022-08-20T07:33:22.232Z,1.53
2022-08-20T07:36:25.427Z,1.40
2022-08-20T07:39:28.511Z,1.40
2022-08-20T07:42:32.457Z,1.90
2022-08-20T07:45:34.450Z,1.70
2022-08-20T07:48:40.274Z,1.73
2022-08-20T07:51:42.247Z,1.80
2022-08-20T07:54:44.569Z,2.03
2022-08-20T07:57:50.756Z,1.90
2022-08-20T08:00:53.647Z,1.80
2022-08-20T08:03:57.861Z,1.53
2022-08-20T08:07:00.791Z,1.70
2022-08-20T08:10:05.327Z,1.77
2022-08-20T08:13:12.427Z,2.00
2022-08-20T08:16:15.642Z,2.47
2022-08-20T08:19:18.286Z,2.13
2022-08-20T08:22:20.852Z,2.43
2022-08-20T08:25:22.736Z,2.20
2022-08-20T08:28:25.510Z,3.30
2022-08-20T08:31:27.511Z,3.17
2022-08-20T08:34:30.319Z,3.30
2022-08-20T08:37:32.367Z,3.80
2022-08-20T08:40:34.719Z,4.28
2022-08-20T08:43:36.685Z,3.20
2022-08-20T08:46:44.455Z,2.88
2022-08-20T08:49:47.686Z,3.20
2022-08-20T08:52:53.794Z,3.28
2022-08-20T08:55:56.455Z,2.95
2022-08-20T08:59:01.955Z,3.40
2022-08-20T09:02:04.218Z,3.20
2022-08-20T09:05:15.260Z,4.25
2022-08-20T09:08:20.760Z,3.85
2022-08-20T09:11:25.081Z,4.00
2022-08-20T09:14:27.050Z,4.35
2022-08-20T09:17:29.042Z,3.88
2022-08-20T09:20:32.210Z,4.28
2022-08-20T09:23:34.807Z,4.38
2022-08-20T09:26:39.151Z,4.22
2022-08-20T09:29:41.664Z,4.80
2022-08-20T09:32:43.846Z,4.70
2022-08-20T09:35:46.838Z,5.55
2022-08-20T09:38:48.720Z,4.95
2022-08-20T09:42:04.910Z,4.80
2022-08-20T09:45:11.063Z,5.28
2022-08-20T09:48:29.615Z,4.97
2022-08-20T09:51:38.497Z,4.90
2022-08-20T09:54:46.344Z,4.80
2022-08-20T09:57:51.268Z,5.22
2022-08-20T10:00:53.509Z,4.30
2022-08-20T10:03:55.415Z,4.93
2022-08-20T10:06:58.010Z,4.72
2022-08-20T10:10:00.042Z,4.55
2022-08-20T10:13:02.763Z,4.78
2022-08-20T10:16:05.307Z,4.70
2022-08-20T10:19:07.230Z,4.95
2022-08-20T10:22:09.461Z,4.43
2022-08-20T10:25:11.812Z,4.50
2022-08-20T10:28:15.895Z,5.15
2022-08-20T10:31:17.846Z,5.13
2022-08-20T10:34:20.164Z,4.30
2022-08-20T10:37:23.644Z,4.63
2022-08-20T10:40:25.621Z,5.47
2022-08-20T10:43:28.749Z,4.90
2022-08-20T10:46:30.945Z,5.97
2022-08-20T10:49:35.921Z,4.90
2022-08-20T10:52:39.181Z,6.00
2022-08-20T10:55:58.970Z,5.50
2022-08-20T10:59:02.316Z,5.57
2022-08-20T11:02:04.555Z,6.18
2022-08-20T11:05:07.177Z,5.88
2022-08-20T11:08:09.216Z,4.25
2022-08-20T11:11:11.244Z,5.05
2022-08-20T11:18:23.265Z,6.20
2022-08-20T11:21:30.315Z,6.10
2022-08-20T11:24:38.133Z,5.47
2022-08-20T11:27:46.690Z,5.43
2022-08-20T11:30:54.179Z,5.13
2022-08-20T11:33:58.166Z,6.23
2022-08-20T11:37:01.221Z,5.77
2022-08-20T11:40:06.497Z,5.90
2022-08-20T11:43:17.200Z,6.10
2022-08-20T11:46:22.577Z,5.47
2022-08-20T11:49:33.977Z,4.93
2022-08-20T11:52:36.260Z,4.35
2022-08-20T11:55:40.250Z,4.43
2022-08-20T11:58:44.085Z,4.30
2022-08-20T12:02:03.240Z,4.22
2022-08-20T12:05:14.221Z,4.78
2022-08-20T12:08:27.133Z,4.32
2022-08-20T12:11:38.557Z,4.43
2022-08-20T12:14:42.917Z,4.57
2022-08-20T12:17:45.031Z,4.03
2022-08-20T12:20:47.891Z,4.47
2022-08-20T12:23:54.029Z,4.38
2022-08-20T12:26:56.660Z,4.78
2022-08-20T12:30:02.910Z,4.45
2022-08-20T12:33:06.695Z,4.75
2022-08-20T12:36:12.180Z,4.15
2022-08-20T12:39:15.692Z,4.25
2022-08-20T12:42:18.260Z,4.10
2022-08-20T12:45:23.782Z,3.45
2022-08-20T12:48:25.746Z,3.33
2022-08-20T12:51:28.217Z,3.53
2022-08-20T12:54:31.006Z,4.20
2022-08-20T12:57:40.307Z,3.90
2022-08-20T13:00:50.604Z,3.92
2022-08-20T13:04:06.476Z,4.10
2022-08-20T13:07:15.610Z,3.50
2022-08-20T13:10:28.716Z,4.00
2022-08-20T13:13:33.010Z,3.22
2022-08-20T13:16:36.496Z,3.63
2022-08-20T13:19:40.546Z,3.38
2022-08-20T13:22:47.325Z,2.60
2022-08-20T13:25:50.462Z,3.17
2022-08-20T13:28:52.546Z,3.20
2022-08-20T13:31:55.916Z,3.10
2022-08-20T13:34:59.581Z,3.70
2022-08-20T13:38:09.125Z,3.58
2022-08-20T13:41:15.686Z,3.50
2022-08-20T13:44:18.582Z,2.88
2022-08-20T13:47:27.226Z,2.53
2022-08-20T13:50:32.467Z,2.60
2022-08-20T13:53:34.504Z,3.17
2022-08-20T13:56:38.662Z,3.38
2022-08-20T13:59:44.286Z,3.10
2022-08-20T14:02:46.911Z,3.20
2022-08-20T14:05:50.283Z,3.33
2022-08-20T14:08:53.749Z,3.20
2022-08-20T14:12:04.331Z,3.55
2022-08-20T14:15:10.159Z,3.75
2022-08-20T14:18:18.066Z,3.90
2022-08-20T14:21:23.507Z,3.75
2022-08-20T14:24:26.771Z,3.60
2022-08-20T14:27:31.453Z,4.00
2022-08-20T14:30:39.466Z,3.38
2022-08-20T14:33:45.818Z,4.13
2022-08-20T14:36:49.961Z,3.50
2022-08-20T14:40:00.352Z,3.33
2022-08-20T14:43:04.208Z,4.35
2022-08-20T14:46:06.700Z,4.00
2022-08-20T14:49:11.136Z,3.85
2022-08-20T14:52:15.431Z,3.70
2022-08-20T14:55:22.823Z,3.45
2022-08-20T14:58:28.770Z,4.18
2022-08-20T15:01:35.490Z,3.70
2022-08-20T15:04:37.566Z,4.10
2022-08-20T15:07:42.719Z,3.60
2022-08-20T15:10:50.190Z,3.58
2022-08-20T15:13:56.420Z,3.53
2022-08-20T15:17:02.156Z,3.80
2022-08-20T15:20:20.161Z,3.15
2022-08-20T15:23:24.719Z,3.80
2022-08-20T15:26:26.611Z,3.70
2022-08-20T15:29:30.021Z,3.95
2022-08-20T15:32:32.932Z,4.38
2022-08-20T15:35:36.183Z,4.05
2022-08-20T15:38:38.232Z,3.50
2022-08-20T15:41:42.928Z,2.97
2022-08-20T15:44:46.923Z,3.30
2022-08-20T15:48:14.488Z,3.75
2022-08-20T15:51:30.449Z,3.53
2022-08-20T15:54:45.023Z,3.33
2022-08-20T15:58:12.166Z,3.00
2022-08-20T16:01:25.907Z,3.40
2022-08-20T16:04:56.101Z,3.65
2022-08-20T16:08:24.173Z,2.90
2022-08-20T16:11:33.615Z,3.00
2022-08-20T16:14:40.160Z,3.13
2022-08-20T16:18:01.120Z,3.50
2022-08-20T16:21:09.552Z,3.35
2022-08-20T16:24:12.936Z,3.57
2022-08-20T16:27:28.780Z,3.60
2022-08-20T16:30:40.904Z,4.47
2022-08-20T16:34:03.450Z,5.57
2022-08-20T16:37:37.260Z,3.93
2022-08-20T16:40:56.638Z,3.50
2022-08-20T16:44:08.052Z,3.83
2022-08-20T16:47:21.982Z,3.20
2022-08-20T16:50:29.065Z,3.37
2022-08-20T16:53:37.784Z,3.60
2022-08-20T16:56:47.285Z,3.50
2022-08-20T17:00:01.978Z,3.10
2022-08-20T17:03:06.981Z,3.33
2022-08-20T17:06:38.140Z,3.40
2022-08-20T17:09:46.492Z,4.50
2022-08-20T17:13:11.971Z,4.27
2022-08-20T17:16:14.206Z,3.13
2022-08-20T17:19:38.769Z,2.83
2022-08-20T17:23:05.968Z,3.63
2022-08-20T17:26:32.531Z,2.90
2022-08-20T17:29:40.735Z,3.33
2022-08-20T17:33:22.117Z,4.00
2022-08-20T17:36:26.701Z,4.50
2022-08-20T17:39:31.663Z,3.67
2022-08-20T17:42:33.582Z,3.47
2022-08-20T17:45:43.569Z,4.20
2022-08-20T17:48:49.678Z,3.80
2022-08-20T17:51:55.810Z,3.60
2022-08-20T17:54:58.277Z,3.30
2022-08-20T17:58:06.149Z,3.80
2022-08-20T18:01:17.207Z,3.50
2022-08-20T18:04:19.330Z,3.20
2022-08-20T18:07:26.715Z,3.77
2022-08-20T18:10:30.898Z,3.43
2022-08-20T18:13:48.287Z,2.80
2022-08-20T18:16:56.940Z,3.37
2022-08-20T18:20:21.035Z,3.23
2022-08-20T18:23:47.540Z,3.17
2022-08-20T18:27:09.146Z,3.30
2022-08-20T18:30:20.069Z,3.10
2022-08-20T18:33:31.340Z,3.60
2022-08-20T18:36:36.959Z,3.60
2022-08-20T18:39:42.599Z,3.40
2022-08-20T18:42:48.115Z,3.17
2022-08-20T18:45:53.019Z,2.87
2022-08-20T18:49:05.192Z,3.00
2022-08-20T18:52:33.609Z,2.60
2022-08-20T18:55:42.849Z,3.00
2022-08-20T18:59:03.140Z,2.73
2022-08-20T19:02:23.837Z,2.20
2022-08-20T19:05:37.406Z,2.50
2022-08-20T19:08:57.940Z,2.80
2022-08-20T19:12:25.440Z,2.50
2022-08-20T19:15:28.080Z,2.60
2022-08-20T19:18:35.395Z,2.60
2022-08-20T19:21:42.856Z,2.80
2022-08-20T19:24:44.894Z,2.60
2022-08-20T19:27:48.720Z,2.30
2022-08-20T19:30:54.940Z,2.83
2022-08-20T19:34:22.486Z,3.10
2022-08-20T19:37:38.600Z,3.47
2022-08-20T19:41:10.916Z,2.97
2022-08-20T19:44:31.859Z,3.20
2022-08-20T19:47:42.831Z,2.77
2022-08-20T19:51:04.466Z,3.00
2022-08-20T19:54:07.705Z,2.73
2022-08-20T19:57:13.581Z,2.60
2022-08-20T20:00:42.783Z,2.63
2022-08-20T20:04:00.213Z,2.37
2022-08-20T20:07:05.230Z,2.23
2022-08-20T20:10:20.974Z,1.97
2022-08-20T20:13:33.289Z,2.13
2022-08-20T20:16:43.385Z,2.13
2022-08-20T20:20:00.181Z,2.00
2022-08-20T20:23:24.764Z,1.90
2022-08-20T20:26:32.835Z,2.10
2022-08-20T20:29:37.387Z,1.73
2022-08-20T20:32:41.720Z,1.70
2022-08-20T20:35:47.555Z,1.80
2022-08-20T20:39:00.205Z,1.97
2022-08-20T20:42:14.731Z,2.13
2022-08-20T20:45:20.416Z,1.90
2022-08-20T20:48:32.899Z,2.13
2022-08-20T20:51:46.960Z,1.90
2022-08-20T20:54:50.745Z,2.33
2022-08-20T20:57:55.839Z,2.30
2022-08-20T21:00:59.831Z,2.47
2022-08-20T21:04:04.676Z,2.93
2022-08-20T21:07:12.151Z,2.87
2022-08-20T21:10:14.755Z,2.90
2022-08-20T21:13:18.946Z,2.30
2022-08-20T21:16:21.490Z,2.17
2022-08-20T21:19:25.750Z,2.60
2022-08-20T21:22:30.901Z,2.63
2022-08-20T21:25:39.130Z,2.40
2022-08-20T21:28:41.090Z,2.90
2022-08-20T21:31:46.335Z,3.10
2022-08-20T21:34:50.705Z,3.30
2022-08-20T21:37:52.958Z,2.90
2022-08-20T21:40:55.696Z,2.27
2022-08-20T21:44:25.480Z,2.10
2022-08-20T21:47:29.185Z,2.00
2022-08-20T21:50:36.070Z,1.80
2022-08-20T21:53:38.572Z,2.20
2022-08-20T21:56:42.101Z,2.60
2022-08-20T21:59:45.569Z,2.53
2022-08-20T22:02:49.295Z,2.33
2022-08-20T22:05:52.335Z,2.33
2022-08-20T22:08:54.550Z,2.20
2022-08-20T22:12:00.791Z,2.50
2022-08-20T22:15:03.656Z,2.50
2022-08-20T22:18:06.850Z,2.80
2022-08-20T22:21:15.902Z,2.40
2022-08-20T22:24:18.025Z,2.27
2022-08-20T22:27:22.675Z,2.30
2022-08-20T22:30:25.814Z,2.53
2022-08-20T22:33:27.925Z,2.60
2022-08-20T22:36:31.974Z,2.20
2022-08-20T22:39:38.345Z,2.53
2022-08-20T22:42:41.699Z,2.27
2022-08-20T22:45:47.419Z,2.20
2022-08-20T22:48:50.646Z,2.17
2022-08-20T22:51:52.923Z,2.30
2022-08-20T22:54:56.057Z,1.60
2022-08-20T22:57:59.700Z,1.70
2022-08-20T23:01:05.705Z,1.93
2022-08-20T23:04:22.772Z,1.93
2022-08-20T23:07:25.907Z,1.83
2022-08-20T23:10:29.927Z,2.00
2022-08-20T23:13:31.806Z,1.80
2022-08-20T23:16:37.619Z,1.80
2022-08-20T23:19:42.828Z,1.80
2022-08-20T23:22:45.612Z,2.03
2022-08-20T23:25:47.873Z,1.73
2022-08-20T23:28:50.285Z,1.77
2022-08-20T23:31:55.684Z,1.73
2022-08-20T23:34:57.538Z,1.73
2022-08-20T23:38:00.236Z,1.77
2022-08-20T23:41:02.241Z,1.70
2022-08-20T23:44:05.003Z,1.70
2022-08-20T23:47:27.923Z,1.30
2022-08-20T23:50:32.521Z,1.23
2022-08-20T23:53:35.752Z,1.67
2022-08-20T23:56:37.742Z,1.30
2022-08-20T23:59:40.818Z,1.90
